Nyk Deneb — 3EOF8 — position and weather

sailwx.info

Track history (hours):
 
Tides and Currents Weather Stations Pressure Air Temp Water Temp Dewpoint Dewpoint Depression Visibility Wind Speed Wind Dir Waves Ship Positions

Nyk Deneb

Last reported at 2017-Sep-25 02:20 UTC. Time now 2017-Sep-25 02:49 UTC.
Position N 32°07' W 081°08'.

Length 294 m; draft 12.3 m.

Type: Ship (hazmat cat B). MMSI: 355717000.

Date/timePositionNaut miles runAvg speedWind from/ knotsBaromVisibWave heightAir tempDewpointWater temp
2017-Sep-25 02:20N 32°07' W 081°08'0 0.0
2017-Sep-25 01:50N 32°07' W 081°08'0 0.0
2017-Sep-25 01:20N 32°07' W 081°08'0 0.0
2017-Sep-25 00:50N 32°07' W 081°08'0 0.0
2017-Sep-25 00:26N 32°07' W 081°08'0 0.0
2017-Sep-24 23:56N 32°07' W 081°08'0 0.0
2017-Sep-24 23:26N 32°07' W 081°08'0 0.0
2017-Sep-24 22:56N 32°07' W 081°08'0 0.0
2017-Sep-24 22:26N 32°07' W 081°08'0 0.0
2017-Sep-24 21:56N 32°07' W 081°08'0 0.0
2017-Sep-24 21:20N 32°07' W 081°08'0 0.0
2017-Sep-24 20:50N 32°07' W 081°08'0 0.0
2017-Sep-24 20:26N 32°07' W 081°08'0 0.0
2017-Sep-24 19:56N 32°07' W 081°08'0 0.0
2017-Sep-24 19:26N 32°07' W 081°08'0 0.0
2017-Sep-24 18:56N 32°07' W 081°08'0 0.0
2017-Sep-24 18:20N 32°07' W 081°08'0 0.0
2017-Sep-24 17:44N 32°07' W 081°08'0 0.0
2017-Sep-24 17:26N 32°07' W 081°08'0 0.0
2017-Sep-24 16:50N 32°07' W 081°08'0 0.0
2017-Sep-24 16:26N 32°07' W 081°08'0 0.0
2017-Sep-24 16:01N 32°07' W 081°08'1 1.1
2017-Sep-24 15:30N 32°08' W 081°08'2 4.0
2017-Sep-24 15:00N 32°06' W 081°07'3 5.6
2017-Sep-24 14:31N 32°05' W 081°04'4 7.3
2017-Sep-24 14:01N 32°06' W 081°00'510.6
2017-Sep-24 13:30N 32°02' W 080°55'511.2
2017-Sep-24 13:00N 32°02' W 080°49'611.8
2017-Sep-24 12:30N 31°58' W 080°44'5 9.4
2017-Sep-24 12:00N 31°56' W 080°38'5 9.4
2017-Sep-24 11:30N 31°56' W 080°33'510.7
2017-Sep-24 11:00N 31°57' W 080°27'4 7.9
2017-Sep-24 10:30N 31°57' W 080°22'3 6.4
2017-Sep-24 10:00N 31°58' W 080°18'8 1.6
2017-Sep-24 04:49N 32°01' W 080°09'0 0.6
2017-Sep-24 04:18N 32°01' W 080°09'0 0.7
2017-Sep-24 03:59N 32°01' W 080°08'1 0.7
2017-Sep-24 02:58N 32°00' W 080°08'3 3.8
2017-Sep-24 02:15N 32°00' W 080°11'311.0
2017-Sep-24 02:00N 31°60' W 080°14'511.0
2017-Sep-24 01:31N 31°59' W 080°20'3 5.1
2017-Sep-24 01:00N 31°59' W 080°23'1 1.5
2017-Sep-24 00:20N 31°59' W 080°22'2 1.5
2017-Sep-23 22:54N 31°59' W 080°20'0 0.6
2017-Sep-23 22:29N 31°59' W 080°20'2 4.3
2017-Sep-23 22:00N 31°58' W 080°22'610.2
2017-Sep-23 21:25N 31°57' W 080°15'512.3
2017-Sep-23 20:59N 31°57' W 080°09'612.2
2017-Sep-23 20:28N 31°58' W 080°01'510.2
2017-Sep-23 19:59N 31°59' W 079°55'  
2017-Sep-21 12:00N 34°00' W 066°42'65418.2 320 / 201017.110.8 26.021.832.0
2017-Sep-20 00:00N 38°54' W 054°36'23519.5 090 / 161029.3 5.4 24.019.6
2017-Sep-19 12:00N 41°00' W 050°18'23119.2 070 / 181032.1 5.4 20.013.5
2017-Sep-19 00:00N 42°54' W 045°48'23219.3 030 / 241029.610.8 16.010.821.0
2017-Sep-18 12:00N 44°36' W 041°00'24320.3 040 / 211021.410.8 18.013.026.0
2017-Sep-18 00:00N 46°12' W 035°42'23519.6 360 / 211022.6 5.4 18.013.024.0
2017-Sep-17 12:00N 47°30' W 030°18'   290 / 61021.6 5.4 19.014.2
2017-Sep-15 07:30N 49°50' W 004°48'1020.1
2017-Sep-15 07:01N 49°51' W 004°33'1320.2
2017-Sep-15 06:22N 49°52' W 004°13'720.1
2017-Sep-15 06:01N 49°53' W 004°02'1020.2
2017-Sep-15 05:31N 49°55' W 003°46'1019.9
2017-Sep-15 05:01N 49°56' W 003°31'1019.5
2017-Sep-15 04:31N 49°57' W 003°16'1019.3
2017-Sep-15 04:01N 49°59' W 003°01'918.7
2017-Sep-15 03:31N 50°00' W 002°47'918.5
2017-Sep-15 03:01N 50°01' W 002°32'918.2
2017-Sep-15 02:29N 50°03' W 002°18'  
Track history (hours):
 
Tides and Currents Weather Stations Pressure Air Temp Water Temp Dewpoint Dewpoint Depression Visibility Wind Speed Wind Dir Waves Ship Positions

Nyk Deneb

Last reported at 2017-Sep-25 02:20 UTC. Time now 2017-Sep-25 02:49 UTC.
Position N 32°07' W 081°08'.

Length 294 m; draft 12.3 m.

Type: Ship (hazmat cat B). MMSI: 355717000.

Date/timePositionNaut miles runAvg speedWind from/ knotsBaromVisibWave heightAir tempDewpointWater temp
2017-Sep-25 02:20N 32°07' W 081°08'0 0.0
2017-Sep-25 01:50N 32°07' W 081°08'0 0.0
2017-Sep-25 01:20N 32°07' W 081°08'0 0.0
2017-Sep-25 00:50N 32°07' W 081°08'0 0.0
2017-Sep-25 00:26N 32°07' W 081°08'0 0.0
2017-Sep-24 23:56N 32°07' W 081°08'0 0.0
2017-Sep-24 23:26N 32°07' W 081°08'0 0.0
2017-Sep-24 22:56N 32°07' W 081°08'0 0.0
2017-Sep-24 22:26N 32°07' W 081°08'0 0.0
2017-Sep-24 21:56N 32°07' W 081°08'0 0.0
2017-Sep-24 21:20N 32°07' W 081°08'0 0.0
2017-Sep-24 20:50N 32°07' W 081°08'0 0.0
2017-Sep-24 20:26N 32°07' W 081°08'0 0.0
2017-Sep-24 19:56N 32°07' W 081°08'0 0.0
2017-Sep-24 19:26N 32°07' W 081°08'0 0.0
2017-Sep-24 18:56N 32°07' W 081°08'0 0.0
2017-Sep-24 18:20N 32°07' W 081°08'0 0.0
2017-Sep-24 17:44N 32°07' W 081°08'0 0.0
2017-Sep-24 17:26N 32°07' W 081°08'0 0.0
2017-Sep-24 16:50N 32°07' W 081°08'0 0.0
2017-Sep-24 16:26N 32°07' W 081°08'0 0.0
2017-Sep-24 16:01N 32°07' W 081°08'1 1.1
2017-Sep-24 15:30N 32°08' W 081°08'2 4.0
2017-Sep-24 15:00N 32°06' W 081°07'3 5.6
2017-Sep-24 14:31N 32°05' W 081°04'4 7.3
2017-Sep-24 14:01N 32°06' W 081°00'510.6
2017-Sep-24 13:30N 32°02' W 080°55'511.2
2017-Sep-24 13:00N 32°02' W 080°49'611.8
2017-Sep-24 12:30N 31°58' W 080°44'5 9.4
2017-Sep-24 12:00N 31°56' W 080°38'5 9.4
2017-Sep-24 11:30N 31°56' W 080°33'510.7
2017-Sep-24 11:00N 31°57' W 080°27'4 7.9
2017-Sep-24 10:30N 31°57' W 080°22'3 6.4
2017-Sep-24 10:00N 31°58' W 080°18'8 1.6
2017-Sep-24 04:49N 32°01' W 080°09'0 0.6
2017-Sep-24 04:18N 32°01' W 080°09'0 0.7
2017-Sep-24 03:59N 32°01' W 080°08'1 0.7
2017-Sep-24 02:58N 32°00' W 080°08'3 3.8
2017-Sep-24 02:15N 32°00' W 080°11'311.0
2017-Sep-24 02:00N 31°60' W 080°14'511.0
2017-Sep-24 01:31N 31°59' W 080°20'3 5.1
2017-Sep-24 01:00N 31°59' W 080°23'1 1.5
2017-Sep-24 00:20N 31°59' W 080°22'2 1.5
2017-Sep-23 22:54N 31°59' W 080°20'0 0.6
2017-Sep-23 22:29N 31°59' W 080°20'2 4.3
2017-Sep-23 22:00N 31°58' W 080°22'610.2
2017-Sep-23 21:25N 31°57' W 080°15'512.3
2017-Sep-23 20:59N 31°57' W 080°09'612.2
2017-Sep-23 20:28N 31°58' W 080°01'510.2
2017-Sep-23 19:59N 31°59' W 079°55'  
2017-Sep-21 12:00N 34°00' W 066°42'65418.2 320 / 201017.110.8 26.021.832.0
2017-Sep-20 00:00N 38°54' W 054°36'23519.5 090 / 161029.3 5.4 24.019.6
2017-Sep-19 12:00N 41°00' W 050°18'23119.2 070 / 181032.1 5.4 20.013.5
2017-Sep-19 00:00N 42°54' W 045°48'23219.3 030 / 241029.610.8 16.010.821.0
2017-Sep-18 12:00N 44°36' W 041°00'24320.3 040 / 211021.410.8 18.013.026.0
2017-Sep-18 00:00N 46°12' W 035°42'23519.6 360 / 211022.6 5.4 18.013.024.0
2017-Sep-17 12:00N 47°30' W 030°18'   290 / 61021.6 5.4 19.014.2
2017-Sep-15 07:30N 49°50' W 004°48'1020.1
2017-Sep-15 07:01N 49°51' W 004°33'1320.2
2017-Sep-15 06:22N 49°52' W 004°13'720.1
2017-Sep-15 06:01N 49°53' W 004°02'1020.2
2017-Sep-15 05:31N 49°55' W 003°46'1019.9
2017-Sep-15 05:01N 49°56' W 003°31'1019.5
2017-Sep-15 04:31N 49°57' W 003°16'1019.3
2017-Sep-15 04:01N 49°59' W 003°01'918.7
2017-Sep-15 03:31N 50°00' W 002°47'918.5
2017-Sep-15 03:01N 50°01' W 002°32'918.2
2017-Sep-15 02:29N 50°03' W 002°18'  

Dump ship's entire track history